Time,TemperatureF,DewpointF,PressureIn,WindDirection,WindDirectionDegrees,WindSpeedMPH,WindSpeedGustMPH,Humidity,HourlyPrecipIn,Conditions,Clouds,dailyrainin,SoftwareType,DateUTC
2013-04-08 00:03:00,55.0,43.0,29.97,South,170,3.0,5.0,63,0.00,,,0.00,,2013-04-08 04:03:00,
2013-04-08 00:13:00,55.0,43.0,29.97,South,170,3.0,5.0,63,0.00,,,0.00,,2013-04-08 04:13:00,
2013-04-08 00:23:00,55.0,43.0,29.97,SSW,206,5.0,7.0,63,0.00,,,0.00,,2013-04-08 04:23:00,
2013-04-08 00:34:00,54.0,42.0,29.97,SSW,202,7.0,7.0,63,0.00,,,0.00,,2013-04-08 04:34:00,
2013-04-08 00:44:00,54.0,42.0,29.97,SSW,202,7.0,7.0,63,0.00,,,0.00,,2013-04-08 04:44:00,
2013-04-08 00:52:00,54.0,42.0,29.97,South,178,3.0,8.0,63,0.00,,,0.00,,2013-04-08 04:52:00,
2013-04-08 01:02:00,55.0,43.0,29.97,SSW,192,3.0,5.0,63,0.00,,,0.00,,2013-04-08 05:02:00,
2013-04-08 01:12:00,55.0,43.0,29.97,SSW,192,3.0,5.0,63,0.00,,,0.00,,2013-04-08 05:12:00,
2013-04-08 01:22:00,55.0,43.0,29.97,SSW,192,3.0,5.0,63,0.00,,,0.00,,2013-04-08 05:22:00,
2013-04-08 01:32:00,57.0,41.0,29.97,South,171,4.0,4.0,56,0.00,,,0.00,,2013-04-08 05:32:00,
2013-04-08 01:42:00,54.0,39.0,29.97,SSW,199,3.0,4.0,56,0.00,,,0.00,,2013-04-08 05:42:00,
2013-04-08 01:53:00,54.0,39.0,29.97,SSW,199,3.0,4.0,56,0.00,,,0.00,,2013-04-08 05:53:00,
2013-04-08 02:02:00,54.0,39.0,29.97,SSW,209,2.0,3.0,56,0.00,,,0.00,,2013-04-08 06:02:00,
2013-04-08 02:12:00,57.0,42.0,29.97,SSW,200,5.0,5.0,58,0.00,,,0.00,,2013-04-08 06:12:00,
2013-04-08 02:22:00,57.0,42.0,29.97,SSW,200,5.0,5.0,58,0.00,,,0.00,,2013-04-08 06:22:00,
2013-04-08 02:32:00,57.0,42.0,29.97,South,178,7.0,7.0,58,0.00,,,0.00,,2013-04-08 06:32:00,
2013-04-08 02:43:00,57.0,42.0,29.97,South,178,7.0,7.0,58,0.00,,,0.00,,2013-04-08 06:43:00,
2013-04-08 02:52:00,57.0,42.0,29.97,South,178,7.0,7.0,58,0.00,,,0.00,,2013-04-08 06:52:00,
2013-04-08 03:02:00,57.0,42.0,29.94,SSW,208,6.0,7.0,58,0.00,,,0.00,,2013-04-08 07:02:00,
2013-04-08 03:12:00,57.0,42.0,29.94,South,189,7.0,7.0,58,0.00,,,0.00,,2013-04-08 07:12:00,
2013-04-08 03:22:00,57.0,42.0,29.94,South,189,7.0,7.0,58,0.00,,,0.00,,2013-04-08 07:22:00,
2013-04-08 03:33:00,57.0,42.0,29.94,South,189,7.0,7.0,58,0.00,,,0.00,,2013-04-08 07:33:00,
2013-04-08 03:42:00,57.0,42.0,29.94,South,189,7.0,7.0,58,0.00,,,0.00,,2013-04-08 07:42:00,
2013-04-08 03:52:00,57.0,45.0,29.94,SSW,204,7.0,7.0,63,0.00,,,0.00,,2013-04-08 07:52:00,
2013-04-08 04:02:00,57.0,46.0,29.94,SSW,194,5.0,5.0,66,0.00,,,0.00,,2013-04-08 08:02:00,
2013-04-08 04:12:00,57.0,46.0,29.94,SSW,194,5.0,5.0,66,0.00,,,0.00,,2013-04-08 08:12:00,
2013-04-08 04:22:00,57.0,46.0,29.94,SSW,194,5.0,5.0,66,0.00,,,0.00,,2013-04-08 08:22:00,
2013-04-08 04:33:00,57.0,46.0,29.94,SSW,194,5.0,5.0,66,0.00,,,0.00,,2013-04-08 08:33:00,
2013-04-08 04:42:00,56.0,46.0,29.94,SSW,206,7.0,7.0,70,0.00,,,0.00,,2013-04-08 08:42:00,
2013-04-08 04:52:00,56.0,46.0,29.94,SSW,206,7.0,7.0,70,0.00,,,0.00,,2013-04-08 08:52:00,
2013-04-08 05:02:00,56.0,46.0,29.94,SSW,210,5.0,7.0,70,0.00,,,0.00,,2013-04-08 09:02:00,
2013-04-08 05:12:00,56.0,46.0,29.94,SSW,196,8.0,8.0,70,0.00,,,0.00,,2013-04-08 09:12:00,
2013-04-08 05:23:00,56.0,46.0,29.94,SSW,196,8.0,8.0,70,0.00,,,0.00,,2013-04-08 09:23:00,
2013-04-08 05:33:00,57.0,47.0,29.94,SW,215,7.0,7.0,70,0.00,,,0.00,,2013-04-08 09:33:00,
2013-04-08 05:43:00,57.0,47.0,29.94,SW,215,7.0,7.0,70,0.00,,,0.00,,2013-04-08 09:43:00,
2013-04-08 05:53:00,56.0,46.0,29.94,SSW,194,5.0,5.0,70,0.00,,,0.00,,2013-04-08 09:53:00,
2013-04-08 06:03:00,56.0,46.0,29.94,SSW,194,5.0,5.0,70,0.00,,,0.00,,2013-04-08 10:03:00,
2013-04-08 06:13:00,56.0,46.0,29.94,SSW,194,5.0,5.0,70,0.00,,,0.00,,2013-04-08 10:13:00,
2013-04-08 06:23:00,56.0,46.0,29.94,SSW,203,5.0,5.0,70,0.00,,,0.00,,2013-04-08 10:23:00,
2013-04-08 06:33:00,56.0,46.0,29.94,SSW,203,5.0,5.0,70,0.00,,,0.00,,2013-04-08 10:33:00,
2013-04-08 06:43:00,56.0,46.0,29.94,SSW,203,5.0,5.0,70,0.00,,,0.00,,2013-04-08 10:43:00,
2013-04-08 06:52:00,57.0,47.0,29.97,South,184,5.0,5.0,70,0.00,,,0.00,,2013-04-08 10:52:00,
2013-04-08 07:03:00,57.0,47.0,29.97,SSW,198,3.0,5.0,70,0.00,,,0.00,,2013-04-08 11:03:00,
2013-04-08 07:12:00,57.0,47.0,29.97,SSW,195,3.0,3.0,70,0.00,,,0.00,,2013-04-08 11:12:00,
2013-04-08 07:23:00,57.0,47.0,29.97,SSW,195,3.0,3.0,70,0.00,,,0.00,,2013-04-08 11:23:00,
2013-04-08 07:32:00,56.0,46.0,29.97,South,182,5.0,5.0,70,0.00,,,0.00,,2013-04-08 11:32:00,
2013-04-08 07:42:00,56.0,46.0,29.97,South,182,5.0,5.0,70,0.00,,,0.00,,2013-04-08 11:42:00,
2013-04-08 07:52:00,56.0,46.0,29.97,South,182,5.0,5.0,70,0.00,,,0.00,,2013-04-08 11:52:00,
2013-04-08 08:03:00,56.0,46.0,29.97,South,186,5.0,5.0,70,0.00,,,0.00,,2013-04-08 12:03:00,
2013-04-08 08:12:00,56.0,46.0,29.97,South,186,5.0,5.0,70,0.00,,,0.00,,2013-04-08 12:12:00,
2013-04-08 08:23:00,56.0,46.0,29.97,South,186,5.0,5.0,70,0.00,,,0.00,,2013-04-08 12:23:00,
2013-04-08 08:33:00,56.0,46.0,29.97,South,186,5.0,5.0,70,0.00,,,0.00,,2013-04-08 12:33:00,
2013-04-08 08:42:00,56.0,46.0,29.97,South,186,5.0,5.0,70,0.00,,,0.00,,2013-04-08 12:42:00,
2013-04-08 08:53:00,57.0,47.0,30.00,SW,219,7.0,7.0,70,0.00,,,0.00,,2013-04-08 12:53:00,
2013-04-08 09:03:00,57.0,47.0,30.00,SW,220,8.0,8.0,70,0.00,,,0.00,,2013-04-08 13:03:00,
2013-04-08 09:12:00,57.0,47.0,30.00,SW,220,8.0,8.0,70,0.00,,,0.00,,2013-04-08 13:12:00,
2013-04-08 09:22:00,56.0,46.0,30.00,SSW,197,7.0,7.0,70,0.00,,,0.00,,2013-04-08 13:22:00,
2013-04-08 09:32:00,57.0,47.0,30.00,SSW,197,7.0,7.0,70,0.00,,,0.00,,2013-04-08 13:32:00,
2013-04-08 09:43:00,57.0,47.0,30.00,SSW,197,7.0,7.0,70,0.00,,,0.00,,2013-04-08 13:43:00,
2013-04-08 09:52:00,57.0,47.0,30.00,SSW,197,7.0,7.0,70,0.00,,,0.00,,2013-04-08 13:52:00,
2013-04-08 10:03:00,57.0,45.0,30.00,SW,219,5.0,5.0,63,0.00,,,0.00,,2013-04-08 14:03:00,
2013-04-08 10:12:00,57.0,45.0,30.00,WSW,238,7.0,8.0,63,0.00,,,0.00,,2013-04-08 14:12:00,
2013-04-08 10:22:00,57.0,45.0,30.00,WSW,238,7.0,8.0,63,0.00,,,0.00,,2013-04-08 14:22:00,
2013-04-08 10:33:00,57.0,45.0,30.00,SSW,198,7.0,7.0,63,0.00,,,0.00,,2013-04-08 14:33:00,
2013-04-08 10:42:00,62.0,49.0,30.00,SSW,203,3.0,5.0,63,0.00,,,0.00,,2013-04-08 14:42:00,
2013-04-08 10:52:00,62.0,49.0,30.00,SSW,203,3.0,5.0,63,0.00,,,0.00,,2013-04-08 14:52:00,
2013-04-08 11:02:00,57.0,45.0,30.00,WNW,289,3.0,3.0,63,0.00,,,0.00,,2013-04-08 15:02:00,
2013-04-08 11:12:00,57.0,45.0,30.00,WNW,289,3.0,3.0,63,0.00,,,0.00,,2013-04-08 15:12:00,
2013-04-08 11:22:00,57.0,45.0,30.00,WNW,289,3.0,3.0,63,0.00,,,0.00,,2013-04-08 15:22:00,
2013-04-08 11:34:00,62.0,49.0,30.00,SSW,213,3.0,3.0,63,0.00,,,0.00,,2013-04-08 15:34:00,
2013-04-08 11:43:00,62.0,49.0,30.00,SSW,213,3.0,3.0,63,0.00,,,0.00,,2013-04-08 15:43:00,
2013-04-08 11:53:00,62.0,49.0,30.00,SSW,198,5.0,5.0,63,0.00,,,0.00,,2013-04-08 15:53:00,
2013-04-08 12:03:00,62.0,49.0,30.00,SE,125,2.0,2.0,63,0.00,,,0.00,,2013-04-08 16:03:00,
2013-04-08 12:13:00,62.0,49.0,30.00,SE,125,2.0,2.0,63,0.00,,,0.00,,2013-04-08 16:13:00,
2013-04-08 12:23:00,62.0,49.0,30.00,SE,125,2.0,2.0,63,0.00,,,0.00,,2013-04-08 16:23:00,
2013-04-08 12:33:00,62.0,49.0,30.00,SE,125,2.0,2.0,63,0.00,,,0.00,,2013-04-08 16:33:00,
2013-04-08 12:42:00,69.0,46.0,30.00,SW,214,3.0,5.0,44,0.00,,,0.00,,2013-04-08 16:42:00,
2013-04-08 12:54:00,69.0,46.0,30.00,SW,214,3.0,5.0,44,0.00,,,0.00,,2013-04-08 16:54:00,
2013-04-08 13:03:00,70.0,46.0,30.00,SE,127,3.0,4.0,42,0.00,,,0.00,,2013-04-08 17:03:00,
2013-04-08 13:12:00,70.0,46.0,29.97,SSW,199,3.0,5.0,42,0.00,,,0.00,,2013-04-08 17:12:00,
2013-04-08 13:23:00,70.0,46.0,29.97,SSW,199,3.0,5.0,42,0.00,,,0.00,,2013-04-08 17:23:00,
2013-04-08 13:32:00,70.0,45.0,29.97,South,188,3.0,5.0,40,0.00,,,0.00,,2013-04-08 17:32:00,
2013-04-08 13:44:00,70.0,45.0,29.97,South,188,3.0,5.0,40,0.00,,,0.00,,2013-04-08 17:44:00,
2013-04-08 13:52:00,70.0,45.0,29.97,SSE,148,3.0,3.0,40,0.00,,,0.00,,2013-04-08 17:52:00,
2013-04-08 14:02:00,70.0,45.0,29.97,SSE,148,3.0,3.0,40,0.00,,,0.00,,2013-04-08 18:02:00,
2013-04-08 14:12:00,70.0,45.0,29.97,SSE,148,3.0,3.0,40,0.00,,,0.00,,2013-04-08 18:12:00,
2013-04-08 14:23:00,70.0,45.0,29.97,SSE,148,3.0,3.0,40,0.00,,,0.00,,2013-04-08 18:23:00,
2013-04-08 15:13:00,74.0,46.0,29.94,South,189,8.0,8.0,37,0.00,,,0.00,,2013-04-08 19:13:00,
2013-04-08 15:23:00,74.0,46.0,29.94,South,189,8.0,8.0,37,0.00,,,0.00,,2013-04-08 19:23:00,
2013-04-08 15:33:00,74.0,46.0,29.94,South,189,8.0,8.0,37,0.00,,,0.00,,2013-04-08 19:33:00,
2013-04-08 15:43:00,74.0,45.0,29.91,South,181,3.0,3.0,35,0.00,,,0.00,,2013-04-08 19:43:00,
2013-04-08 15:52:00,74.0,45.0,29.91,South,181,3.0,3.0,35,0.00,,,0.00,,2013-04-08 19:52:00,
2013-04-08 16:02:00,74.0,45.0,29.91,South,181,3.0,3.0,35,0.00,,,0.00,,2013-04-08 20:02:00,
2013-04-08 16:12:00,75.0,45.0,29.91,SSW,206,7.0,7.0,35,0.00,,,0.00,,2013-04-08 20:12:00,
2013-04-08 16:23:00,75.0,45.0,29.91,SSW,206,7.0,7.0,35,0.00,,,0.00,,2013-04-08 20:23:00,
2013-04-08 16:33:00,76.0,46.0,29.91,SSE,162,7.0,7.0,35,0.00,,,0.00,,2013-04-08 20:33:00,
2013-04-08 16:43:00,76.0,46.0,29.91,SSE,162,7.0,7.0,35,0.00,,,0.00,,2013-04-08 20:43:00,
2013-04-08 16:52:00,76.0,46.0,29.91,South,186,5.0,5.0,35,0.00,,,0.00,,2013-04-08 20:52:00,
2013-04-08 17:02:00,76.0,46.0,29.91,South,187,10.0,10.0,35,0.00,,,0.00,,2013-04-08 21:02:00,
2013-04-08 17:12:00,75.0,45.0,29.91,SSE,157,3.0,3.0,35,0.00,,,0.00,,2013-04-08 21:12:00,
2013-04-08 17:22:00,75.0,45.0,29.91,SSE,157,3.0,3.0,35,0.00,,,0.00,,2013-04-08 21:22:00,
2013-04-08 17:33:00,75.0,47.0,29.91,SSW,202,8.0,8.0,37,0.00,,,0.00,,2013-04-08 21:33:00,
2013-04-08 17:43:00,75.0,47.0,29.91,SSW,202,8.0,8.0,37,0.00,,,0.00,,2013-04-08 21:43:00,
2013-04-08 17:52:00,75.0,47.0,29.91,SSE,164,5.0,5.0,37,0.00,,,0.00,,2013-04-08 21:52:00,
2013-04-08 18:03:00,75.0,47.0,29.91,South,182,2.0,2.0,37,0.00,,,0.00,,2013-04-08 22:03:00,
2013-04-08 18:13:00,75.0,47.0,29.91,South,182,2.0,2.0,37,0.00,,,0.00,,2013-04-08 22:13:00,
2013-04-08 18:23:00,75.0,47.0,29.91,South,182,2.0,2.0,37,0.00,,,0.00,,2013-04-08 22:23:00,
2013-04-08 18:32:00,75.0,47.0,29.91,South,182,2.0,2.0,37,0.00,,,0.00,,2013-04-08 22:32:00,
2013-04-08 18:43:00,75.0,47.0,29.91,South,182,2.0,2.0,37,0.00,,,0.00,,2013-04-08 22:43:00,
2013-04-08 19:03:00,75.0,47.0,29.91,SSW,197,3.0,3.0,37,0.00,,,0.00,,2013-04-08 23:03:00,
2013-04-08 19:13:00,75.0,47.0,29.91,SSW,197,3.0,3.0,37,0.00,,,0.00,,2013-04-08 23:13:00,
2013-04-08 19:22:00,75.0,47.0,29.91,SSW,197,3.0,3.0,37,0.00,,,0.00,,2013-04-08 23:22:00,
2013-04-08 19:32:00,75.0,47.0,29.91,East,87,0.0,0.0,37,0.00,,,0.00,,2013-04-08 23:32:00,
2013-04-08 19:43:00,75.0,47.0,29.91,East,87,0.0,0.0,37,0.00,,,0.00,,2013-04-08 23:43:00,
2013-04-08 19:52:00,75.0,47.0,29.91,ESE,120,0.0,0.0,37,0.00,,,0.00,,2013-04-08 23:52:00,
2013-04-08 20:02:00,75.0,47.0,29.91,South,181,0.0,2.0,37,0.00,,,0.00,,2013-04-09 00:02:00,
2013-04-08 20:13:00,75.0,47.0,29.91,South,181,0.0,2.0,37,0.00,,,0.00,,2013-04-09 00:13:00,
2013-04-08 20:22:00,75.0,47.0,29.91,South,181,0.0,2.0,37,0.00,,,0.00,,2013-04-09 00:22:00,
2013-04-08 20:32:00,75.0,47.0,29.91,SW,236,0.0,2.0,37,0.00,,,0.00,,2013-04-09 00:32:00,
2013-04-08 20:42:00,75.0,47.0,29.91,SW,236,0.0,2.0,37,0.00,,,0.00,,2013-04-09 00:42:00,
2013-04-08 20:52:00,75.0,47.0,29.91,SW,236,0.0,2.0,37,0.00,,,0.00,,2013-04-09 00:52:00,
2013-04-08 21:03:00,75.0,47.0,29.91,SW,236,0.0,2.0,37,0.00,,,0.00,,2013-04-09 01:03:00,